sensor_id;sensor_type;location;lat;lon;timestamp;P1;durP1;ratioP1;P2;durP2;ratioP2
70075;SDS011;57446;51.056;3.712;2022-07-29T01:32:26;7.35;;;3.15;;
70075;SDS011;57446;51.056;3.712;2022-07-29T02:26:46;6.20;;;3.70;;
70075;SDS011;57446;51.056;3.712;2022-07-29T03:01:25;6.33;;;3.77;;
70075;SDS011;57446;51.056;3.712;2022-07-29T03:04:14;9.17;;;5.10;;
70075;SDS011;57446;51.056;3.712;2022-07-29T03:07:02;10.55;;;4.33;;
70075;SDS011;57446;51.056;3.712;2022-07-29T03:09:52;11.90;;;4.25;;
70075;SDS011;57446;51.056;3.712;2022-07-29T03:12:41;8.40;;;4.53;;
70075;SDS011;57446;51.056;3.712;2022-07-29T03:15:33;11.12;;;5.55;;
70075;SDS011;57446;51.056;3.712;2022-07-29T03:18:21;9.60;;;5.85;;
70075;SDS011;57446;51.056;3.712;2022-07-29T03:21:10;10.60;;;6.50;;
70075;SDS011;57446;51.056;3.712;2022-07-29T03:24:02;9.60;;;6.87;;
70075;SDS011;57446;51.056;3.712;2022-07-29T03:29:57;11.30;;;6.87;;
70075;SDS011;57446;51.056;3.712;2022-07-29T03:32:41;11.38;;;6.20;;
70075;SDS011;57446;51.056;3.712;2022-07-29T03:35:27;10.68;;;6.37;;
70075;SDS011;57446;51.056;3.712;2022-07-29T03:38:17;8.63;;;5.62;;
70075;SDS011;57446;51.056;3.712;2022-07-29T03:41:09;7.92;;;5.50;;
70075;SDS011;57446;51.056;3.712;2022-07-29T03:44:05;8.40;;;4.65;;
70075;SDS011;57446;51.056;3.712;2022-07-29T03:46:49;12.75;;;4.55;;
70075;SDS011;57446;51.056;3.712;2022-07-29T03:49:38;7.55;;;4.40;;
70075;SDS011;57446;51.056;3.712;2022-07-29T03:52:28;8.20;;;4.65;;
70075;SDS011;57446;51.056;3.712;2022-07-29T03:55:26;7.03;;;3.90;;
70075;SDS011;57446;51.056;3.712;2022-07-29T03:58:10;7.15;;;4.45;;
70075;SDS011;57446;51.056;3.712;2022-07-29T04:01:06;11.10;;;4.90;;
70075;SDS011;57446;51.056;3.712;2022-07-29T04:03:54;9.40;;;4.92;;
70075;SDS011;57446;51.056;3.712;2022-07-29T04:06:46;11.18;;;5.15;;
70075;SDS011;57446;51.056;3.712;2022-07-29T04:09:39;9.15;;;5.60;;
70075;SDS011;57446;51.056;3.712;2022-07-29T04:12:32;8.50;;;5.75;;
70075;SDS011;57446;51.056;3.712;2022-07-29T04:15:20;9.48;;;5.65;;
70075;SDS011;57446;51.056;3.712;2022-07-29T04:18:16;9.33;;;5.70;;
70075;SDS011;57446;51.056;3.712;2022-07-29T04:21:08;12.33;;;8.20;;
70075;SDS011;57446;51.056;3.712;2022-07-29T04:23:56;11.18;;;8.03;;
70075;SDS011;57446;51.056;3.712;2022-07-29T04:26:48;14.55;;;9.53;;
70075;SDS011;57446;51.056;3.712;2022-07-29T04:29:58;14.95;;;11.00;;
70075;SDS011;57446;51.056;3.712;2022-07-29T04:35:20;16.80;;;9.00;;
70075;SDS011;57446;51.056;3.712;2022-07-29T04:44:25;11.78;;;5.58;;
70075;SDS011;57446;51.056;3.712;2022-07-29T04:47:15;11.22;;;5.60;;
70075;SDS011;57446;51.056;3.712;2022-07-29T04:50:18;14.75;;;5.03;;
70075;SDS011;57446;51.056;3.712;2022-07-29T04:53:02;10.23;;;4.85;;
70075;SDS011;57446;51.056;3.712;2022-07-29T04:55:57;13.15;;;4.67;;
70075;SDS011;57446;51.056;3.712;2022-07-29T04:58:46;10.20;;;4.55;;
70075;SDS011;57446;51.056;3.712;2022-07-29T05:01:44;8.83;;;4.22;;
70075;SDS011;57446;51.056;3.712;2022-07-29T05:04:32;10.60;;;4.20;;
70075;SDS011;57446;51.056;3.712;2022-07-29T05:07:18;11.90;;;4.28;;
70075;SDS011;57446;51.056;3.712;2022-07-29T05:10:11;9.63;;;4.45;;
70075;SDS011;57446;51.056;3.712;2022-07-29T05:12:59;10.25;;;4.33;;
70075;SDS011;57446;51.056;3.712;2022-07-29T05:19:19;19.20;;;7.47;;
70075;SDS011;57446;51.056;3.712;2022-07-29T05:22:13;11.75;;;5.22;;
70075;SDS011;57446;51.056;3.712;2022-07-29T05:25:01;13.58;;;5.00;;
70075;SDS011;57446;51.056;3.712;2022-07-29T05:34:36;15.30;;;5.67;;
70075;SDS011;57446;51.056;3.712;2022-07-29T05:37:26;11.45;;;5.08;;
70075;SDS011;57446;51.056;3.712;2022-07-29T05:43:02;11.18;;;5.90;;
70075;SDS011;57446;51.056;3.712;2022-07-29T05:45:55;15.03;;;6.47;;
70075;SDS011;57446;51.056;3.712;2022-07-29T05:48:44;11.75;;;5.17;;
70075;SDS011;57446;51.056;3.712;2022-07-29T05:51:33;13.32;;;5.42;;
70075;SDS011;57446;51.056;3.712;2022-07-29T05:54:23;9.65;;;5.67;;
70075;SDS011;57446;51.056;3.712;2022-07-29T06:03:10;11.90;;;7.03;;
70075;SDS011;57446;51.056;3.712;2022-07-29T06:06:01;13.83;;;8.28;;
70075;SDS011;57446;51.056;3.712;2022-07-29T06:09:02;17.48;;;7.62;;
70075;SDS011;57446;51.056;3.712;2022-07-29T06:11:55;18.27;;;7.40;;
70075;SDS011;57446;51.056;3.712;2022-07-29T06:14:30;12.40;;;8.20;;
70075;SDS011;57446;51.056;3.712;2022-07-29T06:23:48;16.27;;;8.85;;
70075;SDS011;57446;51.056;3.712;2022-07-29T06:26:40;24.67;;;9.68;;
70075;SDS011;57446;51.056;3.712;2022-07-29T06:29:43;23.67;;;9.50;;
70075;SDS011;57446;51.056;3.712;2022-07-29T06:32:35;21.68;;;8.80;;
70075;SDS011;57446;51.056;3.712;2022-07-29T06:35:22;21.27;;;8.93;;
70075;SDS011;57446;51.056;3.712;2022-07-29T06:38:09;17.25;;;9.03;;
70075;SDS011;57446;51.056;3.712;2022-07-29T06:41:01;21.52;;;8.18;;
70075;SDS011;57446;51.056;3.712;2022-07-29T06:43:54;18.15;;;10.35;;
70075;SDS011;57446;51.056;3.712;2022-07-29T06:46:41;20.48;;;10.85;;
70075;SDS011;57446;51.056;3.712;2022-07-29T06:49:32;20.57;;;9.20;;
70075;SDS011;57446;51.056;3.712;2022-07-29T06:52:20;17.70;;;7.58;;
70075;SDS011;57446;51.056;3.712;2022-07-29T06:58:19;20.20;;;7.35;;
70075;SDS011;57446;51.056;3.712;2022-07-29T07:01:08;21.17;;;7.28;;
70075;SDS011;57446;51.056;3.712;2022-07-29T07:03:56;15.83;;;8.30;;
70075;SDS011;57446;51.056;3.712;2022-07-29T07:06:47;26.20;;;9.70;;
70075;SDS011;57446;51.056;3.712;2022-07-29T07:09:46;17.90;;;9.03;;
70075;SDS011;57446;51.056;3.712;2022-07-29T07:12:42;24.77;;;11.45;;
70075;SDS011;57446;51.056;3.712;2022-07-29T07:15:27;26.68;;;13.40;;
70075;SDS011;57446;51.056;3.712;2022-07-29T07:21:31;32.38;;;19.00;;
70075;SDS011;57446;51.056;3.712;2022-07-29T07:24:22;31.68;;;20.23;;
70075;SDS011;57446;51.056;3.712;2022-07-29T07:27:10;28.45;;;20.25;;
70075;SDS011;57446;51.056;3.712;2022-07-29T07:29:57;28.30;;;18.90;;
70075;SDS011;57446;51.056;3.712;2022-07-29T07:32:49;31.97;;;20.68;;
70075;SDS011;57446;51.056;3.712;2022-07-29T07:35:33;36.58;;;24.25;;
70075;SDS011;57446;51.056;3.712;2022-07-29T07:38:24;34.67;;;22.95;;
70075;SDS011;57446;51.056;3.712;2022-07-29T07:41:13;37.83;;;24.20;;
70075;SDS011;57446;51.056;3.712;2022-07-29T07:44:01;36.45;;;24.30;;
70075;SDS011;57446;51.056;3.712;2022-07-29T07:46:50;36.50;;;22.98;;
70075;SDS011;57446;51.056;3.712;2022-07-29T07:49:37;38.13;;;27.98;;
70075;SDS011;57446;51.056;3.712;2022-07-29T07:52:26;33.73;;;26.10;;
70075;SDS011;57446;51.056;3.712;2022-07-29T07:55:22;32.30;;;20.48;;
70075;SDS011;57446;51.056;3.712;2022-07-29T07:58:10;32.42;;;22.65;;
70075;SDS011;57446;51.056;3.712;2022-07-29T08:01:13;29.45;;;17.57;;
70075;SDS011;57446;51.056;3.712;2022-07-29T08:03:53;26.95;;;15.78;;
70075;SDS011;57446;51.056;3.712;2022-07-29T08:06:56;26.33;;;14.83;;
70075;SDS011;57446;51.056;3.712;2022-07-29T08:09:37;18.37;;;11.83;;
70075;SDS011;57446;51.056;3.712;2022-07-29T08:12:21;12.18;;;7.58;;
70075;SDS011;57446;51.056;3.712;2022-07-29T08:15:16;11.22;;;5.87;;
70075;SDS011;57446;51.056;3.712;2022-07-29T08:17:59;13.50;;;5.70;;
70075;SDS011;57446;51.056;3.712;2022-07-29T08:20:46;10.82;;;5.70;;
70075;SDS011;57446;51.056;3.712;2022-07-29T08:23:36;10.90;;;5.00;;
70075;SDS011;57446;51.056;3.712;2022-07-29T08:26:25;11.78;;;4.37;;
70075;SDS011;57446;51.056;3.712;2022-07-29T08:29:13;10.32;;;4.20;;
70075;SDS011;57446;51.056;3.712;2022-07-29T08:32:04;7.75;;;3.52;;
70075;SDS011;57446;51.056;3.712;2022-07-29T08:34:57;8.95;;;4.17;;
70075;SDS011;57446;51.056;3.712;2022-07-29T08:38:01;7.40;;;3.52;;
70075;SDS011;57446;51.056;3.712;2022-07-29T08:40:42;7.30;;;3.85;;
70075;SDS011;57446;51.056;3.712;2022-07-29T08:43:32;7.05;;;3.55;;
70075;SDS011;57446;51.056;3.712;2022-07-29T08:46:22;5.37;;;3.75;;
70075;SDS011;57446;51.056;3.712;2022-07-29T08:49:08;6.75;;;3.85;;
70075;SDS011;57446;51.056;3.712;2022-07-29T08:52:03;6.65;;;3.60;;
70075;SDS011;57446;51.056;3.712;2022-07-29T08:54:50;8.33;;;3.20;;
70075;SDS011;57446;51.056;3.712;2022-07-29T08:57:36;6.08;;;3.27;;
70075;SDS011;57446;51.056;3.712;2022-07-29T09:03:17;7.08;;;3.30;;
70075;SDS011;57446;51.056;3.712;2022-07-29T09:06:03;8.85;;;3.25;;
70075;SDS011;57446;51.056;3.712;2022-07-29T09:08:54;5.30;;;3.08;;
70075;SDS011;57446;51.056;3.712;2022-07-29T09:11:41;7.25;;;2.92;;
70075;SDS011;57446;51.056;3.712;2022-07-29T09:14:27;4.67;;;2.80;;
70075;SDS011;57446;51.056;3.712;2022-07-29T09:17:14;8.30;;;3.60;;
70075;SDS011;57446;51.056;3.712;2022-07-29T09:20:14;4.97;;;3.33;;
70075;SDS011;57446;51.056;3.712;2022-07-29T09:22:52;5.53;;;3.00;;
70075;SDS011;57446;51.056;3.712;2022-07-29T09:25:43;6.00;;;2.87;;
70075;SDS011;57446;51.056;3.712;2022-07-29T09:28:31;5.78;;;3.05;;
70075;SDS011;57446;51.056;3.712;2022-07-29T09:31:19;6.12;;;3.22;;
70075;SDS011;57446;51.056;3.712;2022-07-29T09:34:08;5.17;;;3.17;;
70075;SDS011;57446;51.056;3.712;2022-07-29T09:36:56;6.28;;;3.02;;
70075;SDS011;57446;51.056;3.712;2022-07-29T09:39:47;7.08;;;2.72;;
70075;SDS011;57446;51.056;3.712;2022-07-29T09:42:30;7.03;;;3.02;;
70075;SDS011;57446;51.056;3.712;2022-07-29T09:48:31;7.87;;;3.10;;
70075;SDS011;57446;51.056;3.712;2022-07-29T09:51:20;6.33;;;3.08;;
70075;SDS011;57446;51.056;3.712;2022-07-29T09:57:26;7.08;;;3.35;;
70075;SDS011;57446;51.056;3.712;2022-07-29T10:00:14;7.22;;;3.25;;
70075;SDS011;57446;51.056;3.712;2022-07-29T10:03:07;7.87;;;3.60;;
70075;SDS011;57446;51.056;3.712;2022-07-29T10:06:07;5.75;;;3.25;;
70075;SDS011;57446;51.056;3.712;2022-07-29T10:09:14;5.37;;;3.47;;
70075;SDS011;57446;51.056;3.712;2022-07-29T10:12:15;7.15;;;3.60;;
70075;SDS011;57446;51.056;3.712;2022-07-29T10:15:13;5.58;;;2.60;;
70075;SDS011;57446;51.056;3.712;2022-07-29T10:17:53;6.07;;;3.20;;
70075;SDS011;57446;51.056;3.712;2022-07-29T10:20:45;7.70;;;2.80;;
70075;SDS011;57446;51.056;3.712;2022-07-29T10:23:44;6.80;;;2.87;;
70075;SDS011;57446;51.056;3.712;2022-07-29T10:26:30;11.05;;;2.75;;
70075;SDS011;57446;51.056;3.712;2022-07-29T10:29:18;7.87;;;2.40;;
70075;SDS011;57446;51.056;3.712;2022-07-29T10:32:16;4.53;;;2.50;;
70075;SDS011;57446;51.056;3.712;2022-07-29T10:44:41;6.45;;;2.45;;
70075;SDS011;57446;51.056;3.712;2022-07-29T10:47:29;3.52;;;2.40;;
70075;SDS011;57446;51.056;3.712;2022-07-29T10:50:21;6.12;;;2.35;;
70075;SDS011;57446;51.056;3.712;2022-07-29T10:53:06;5.50;;;2.55;;
70075;SDS011;57446;51.056;3.712;2022-07-29T10:55:57;7.58;;;2.60;;
70075;SDS011;57446;51.056;3.712;2022-07-29T10:58:46;7.15;;;2.75;;
70075;SDS011;57446;51.056;3.712;2022-07-29T11:01:39;3.62;;;1.92;;
70075;SDS011;57446;51.056;3.712;2022-07-29T11:08:28;6.60;;;2.25;;
70075;SDS011;57446;51.056;3.712;2022-07-29T11:19:49;8.10;;;3.60;;
70075;SDS011;57446;51.056;3.712;2022-07-29T11:25:41;6.87;;;2.30;;
70075;SDS011;57446;51.056;3.712;2022-07-29T11:28:31;11.73;;;2.70;;
70075;SDS011;57446;51.056;3.712;2022-07-29T11:34:33;5.33;;;2.10;;
70075;SDS011;57446;51.056;3.712;2022-07-29T11:37:36;4.85;;;2.00;;
70075;SDS011;57446;51.056;3.712;2022-07-29T11:40:15;8.53;;;2.90;;
70075;SDS011;57446;51.056;3.712;2022-07-29T11:43:09;7.60;;;2.33;;
70075;SDS011;57446;51.056;3.712;2022-07-29T11:45:51;6.72;;;2.40;;
70075;SDS011;57446;51.056;3.712;2022-07-29T11:48:43;7.12;;;2.40;;
70075;SDS011;57446;51.056;3.712;2022-07-29T11:51:32;6.30;;;2.40;;
70075;SDS011;57446;51.056;3.712;2022-07-29T11:54:25;10.00;;;2.72;;
70075;SDS011;57446;51.056;3.712;2022-07-29T11:57:17;5.47;;;2.72;;
70075;SDS011;57446;51.056;3.712;2022-07-29T12:00:09;5.67;;;3.10;;
70075;SDS011;57446;51.056;3.712;2022-07-29T12:02:58;6.83;;;2.45;;
70075;SDS011;57446;51.056;3.712;2022-07-29T12:06:00;8.20;;;2.55;;
70075;SDS011;57446;51.056;3.712;2022-07-29T12:08:46;5.65;;;2.22;;
70075;SDS011;57446;51.056;3.712;2022-07-29T12:11:32;8.15;;;2.75;;
70075;SDS011;57446;51.056;3.712;2022-07-29T12:14:26;5.45;;;2.20;;
70075;SDS011;57446;51.056;3.712;2022-07-29T12:17:30;4.90;;;1.95;;
70075;SDS011;57446;51.056;3.712;2022-07-29T12:20:38;7.05;;;1.98;;
70075;SDS011;57446;51.056;3.712;2022-07-29T12:23:17;5.72;;;2.25;;
70075;SDS011;57446;51.056;3.712;2022-07-29T12:26:10;6.10;;;2.05;;
70075;SDS011;57446;51.056;3.712;2022-07-29T12:28:56;6.00;;;2.30;;
70075;SDS011;57446;51.056;3.712;2022-07-29T12:31:58;5.92;;;3.35;;
70075;SDS011;57446;51.056;3.712;2022-07-29T12:34:37;8.05;;;2.58;;
70075;SDS011;57446;51.056;3.712;2022-07-29T12:37:27;4.00;;;2.20;;
70075;SDS011;57446;51.056;3.712;2022-07-29T12:40:18;5.08;;;2.62;;
70075;SDS011;57446;51.056;3.712;2022-07-29T12:43:10;6.60;;;2.42;;
70075;SDS011;57446;51.056;3.712;2022-07-29T12:46:00;4.83;;;2.12;;
70075;SDS011;57446;51.056;3.712;2022-07-29T12:51:38;5.80;;;2.65;;
70075;SDS011;57446;51.056;3.712;2022-07-29T12:54:26;6.90;;;2.27;;
70075;SDS011;57446;51.056;3.712;2022-07-29T12:57:13;7.42;;;2.00;;
70075;SDS011;57446;51.056;3.712;2022-07-29T13:00:10;7.78;;;2.67;;
70075;SDS011;57446;51.056;3.712;2022-07-29T13:03:01;10.35;;;3.95;;
70075;SDS011;57446;51.056;3.712;2022-07-29T13:05:49;35.30;;;27.37;;
70075;SDS011;57446;51.056;3.712;2022-07-29T13:08:39;10.40;;;3.02;;
70075;SDS011;57446;51.056;3.712;2022-07-29T13:11:39;4.33;;;2.67;;
70075;SDS011;57446;51.056;3.712;2022-07-29T13:14:34;5.97;;;2.67;;
70075;SDS011;57446;51.056;3.712;2022-07-29T13:17:31;9.00;;;3.33;;
70075;SDS011;57446;51.056;3.712;2022-07-29T13:20:27;6.45;;;2.12;;
70075;SDS011;57446;51.056;3.712;2022-07-29T13:23:15;6.25;;;2.42;;
70075;SDS011;57446;51.056;3.712;2022-07-29T13:26:08;6.95;;;3.30;;
70075;SDS011;57446;51.056;3.712;2022-07-29T13:28:57;8.80;;;2.90;;
70075;SDS011;57446;51.056;3.712;2022-07-29T13:31:48;8.30;;;3.67;;
70075;SDS011;57446;51.056;3.712;2022-07-29T13:34:39;15.90;;;11.45;;
70075;SDS011;57446;51.056;3.712;2022-07-29T13:37:27;10.90;;;4.03;;
70075;SDS011;57446;51.056;3.712;2022-07-29T13:40:14;7.50;;;3.27;;
70075;SDS011;57446;51.056;3.712;2022-07-29T13:43:02;6.92;;;2.25;;
70075;SDS011;57446;51.056;3.712;2022-07-29T13:45:58;9.33;;;2.37;;
70075;SDS011;57446;51.056;3.712;2022-07-29T13:48:48;6.95;;;1.90;;
70075;SDS011;57446;51.056;3.712;2022-07-29T13:51:35;7.95;;;2.62;;
70075;SDS011;57446;51.056;3.712;2022-07-29T13:54:26;9.18;;;2.30;;
70075;SDS011;57446;51.056;3.712;2022-07-29T13:57:16;11.15;;;3.87;;
70075;SDS011;57446;51.056;3.712;2022-07-29T14:03:08;8.28;;;2.87;;
70075;SDS011;57446;51.056;3.712;2022-07-29T14:06:15;5.97;;;2.58;;
70075;SDS011;57446;51.056;3.712;2022-07-29T14:08:50;12.78;;;2.90;;
70075;SDS011;57446;51.056;3.712;2022-07-29T14:11:50;7.30;;;2.10;;
70075;SDS011;57446;51.056;3.712;2022-07-29T14:14:30;6.35;;;2.22;;
70075;SDS011;57446;51.056;3.712;2022-07-29T14:17:25;4.62;;;2.50;;
70075;SDS011;57446;51.056;3.712;2022-07-29T14:20:16;7.12;;;2.77;;
70075;SDS011;57446;51.056;3.712;2022-07-29T14:23:54;6.35;;;2.15;;
70075;SDS011;57446;51.056;3.712;2022-07-29T14:26:08;7.53;;;2.37;;
70075;SDS011;57446;51.056;3.712;2022-07-29T14:31:59;5.40;;;2.40;;
70075;SDS011;57446;51.056;3.712;2022-07-29T14:34:45;7.60;;;3.02;;
70075;SDS011;57446;51.056;3.712;2022-07-29T14:37:32;11.12;;;2.40;;
70075;SDS011;57446;51.056;3.712;2022-07-29T14:40:28;8.58;;;2.40;;
70075;SDS011;57446;51.056;3.712;2022-07-29T14:43:21;9.10;;;2.52;;
70075;SDS011;57446;51.056;3.712;2022-07-29T14:46:01;5.47;;;2.75;;
70075;SDS011;57446;51.056;3.712;2022-07-29T14:48:58;6.15;;;2.45;;
70075;SDS011;57446;51.056;3.712;2022-07-29T14:51:46;7.50;;;2.58;;
70075;SDS011;57446;51.056;3.712;2022-07-29T14:54:34;8.13;;;2.70;;
70075;SDS011;57446;51.056;3.712;2022-07-29T15:03:33;5.28;;;2.83;;
70075;SDS011;57446;51.056;3.712;2022-07-29T15:06:17;6.47;;;2.80;;
70075;SDS011;57446;51.056;3.712;2022-07-29T15:09:12;7.85;;;2.50;;
70075;SDS011;57446;51.056;3.712;2022-07-29T15:12:00;12.68;;;2.77;;
70075;SDS011;57446;51.056;3.712;2022-07-29T15:14:47;8.28;;;2.45;;
70075;SDS011;57446;51.056;3.712;2022-07-29T15:17:43;6.00;;;2.40;;
70075;SDS011;57446;51.056;3.712;2022-07-29T15:20:33;7.40;;;2.52;;
70075;SDS011;57446;51.056;3.712;2022-07-29T15:23:32;6.08;;;2.00;;
70075;SDS011;57446;51.056;3.712;2022-07-29T15:26:22;7.25;;;2.70;;
70075;SDS011;57446;51.056;3.712;2022-07-29T15:29:17;6.50;;;1.90;;
70075;SDS011;57446;51.056;3.712;2022-07-29T15:32:05;7.25;;;1.80;;
70075;SDS011;57446;51.056;3.712;2022-07-29T15:34:49;8.60;;;2.35;;
70075;SDS011;57446;51.056;3.712;2022-07-29T15:37:38;7.10;;;2.12;;
70075;SDS011;57446;51.056;3.712;2022-07-29T15:40:27;7.10;;;2.05;;
70075;SDS011;57446;51.056;3.712;2022-07-29T15:43:16;5.28;;;2.05;;
70075;SDS011;57446;51.056;3.712;2022-07-29T15:46:04;5.58;;;2.33;;
70075;SDS011;57446;51.056;3.712;2022-07-29T15:49:11;6.55;;;2.80;;
70075;SDS011;57446;51.056;3.712;2022-07-29T15:51:58;7.45;;;2.00;;
70075;SDS011;57446;51.056;3.712;2022-07-29T15:54:55;8.58;;;1.90;;
70075;SDS011;57446;51.056;3.712;2022-07-29T15:57:40;6.00;;;1.50;;
70075;SDS011;57446;51.056;3.712;2022-07-29T16:00:31;25.43;;;19.67;;
70075;SDS011;57446;51.056;3.712;2022-07-29T16:03:18;6.45;;;2.60;;
70075;SDS011;57446;51.056;3.712;2022-07-29T16:06:10;7.67;;;2.45;;
70075;SDS011;57446;51.056;3.712;2022-07-29T16:09:01;7.83;;;2.27;;
70075;SDS011;57446;51.056;3.712;2022-07-29T16:11:47;7.78;;;2.58;;
70075;SDS011;57446;51.056;3.712;2022-07-29T16:15:00;5.55;;;2.25;;
70075;SDS011;57446;51.056;3.712;2022-07-29T16:17:41;13.18;;;2.72;;
70075;SDS011;57446;51.056;3.712;2022-07-29T16:20:25;7.47;;;2.47;;
70075;SDS011;57446;51.056;3.712;2022-07-29T16:23:16;5.45;;;2.02;;
70075;SDS011;57446;51.056;3.712;2022-07-29T16:26:04;5.25;;;2.17;;
70075;SDS011;57446;51.056;3.712;2022-07-29T16:28:54;12.03;;;2.47;;
70075;SDS011;57446;51.056;3.712;2022-07-29T16:31:47;5.50;;;2.22;;
70075;SDS011;57446;51.056;3.712;2022-07-29T16:34:33;5.77;;;2.10;;
70075;SDS011;57446;51.056;3.712;2022-07-29T16:37:31;6.37;;;2.20;;
70075;SDS011;57446;51.056;3.712;2022-07-29T16:40:29;8.80;;;2.45;;
70075;SDS011;57446;51.056;3.712;2022-07-29T16:43:16;7.05;;;3.08;;
70075;SDS011;57446;51.056;3.712;2022-07-29T16:46:07;5.83;;;2.22;;
70075;SDS011;57446;51.056;3.712;2022-07-29T16:52:13;7.33;;;2.00;;
70075;SDS011;57446;51.056;3.712;2022-07-29T16:54:56;8.38;;;2.20;;
70075;SDS011;57446;51.056;3.712;2022-07-29T16:57:36;7.30;;;2.22;;
70075;SDS011;57446;51.056;3.712;2022-07-29T17:00:22;7.17;;;1.98;;
70075;SDS011;57446;51.056;3.712;2022-07-29T17:03:17;8.28;;;2.12;;
70075;SDS011;57446;51.056;3.712;2022-07-29T17:06:23;14.70;;;10.32;;
70075;SDS011;57446;51.056;3.712;2022-07-29T17:17:57;4.67;;;2.10;;
70075;SDS011;57446;51.056;3.712;2022-07-29T17:20:52;7.80;;;2.27;;
70075;SDS011;57446;51.056;3.712;2022-07-29T17:23:38;7.15;;;2.27;;
70075;SDS011;57446;51.056;3.712;2022-07-29T17:26:29;7.53;;;2.45;;
70075;SDS011;57446;51.056;3.712;2022-07-29T17:41:33;9.90;;;2.37;;
70075;SDS011;57446;51.056;3.712;2022-07-29T17:48:56;6.00;;;1.87;;
70075;SDS011;57446;51.056;3.712;2022-07-29T18:01:37;9.55;;;2.20;;
70075;SDS011;57446;51.056;3.712;2022-07-29T18:04:11;7.97;;;2.60;;
70075;SDS011;57446;51.056;3.712;2022-07-29T18:07:01;9.85;;;2.27;;
70075;SDS011;57446;51.056;3.712;2022-07-29T18:13:05;6.00;;;2.55;;
70075;SDS011;57446;51.056;3.712;2022-07-29T18:22:24;10.93;;;5.25;;
70075;SDS011;57446;51.056;3.712;2022-07-29T18:40:34;4.75;;;2.30;;
70075;SDS011;57446;51.056;3.712;2022-07-29T18:43:28;4.60;;;1.92;;
70075;SDS011;57446;51.056;3.712;2022-07-29T18:46:15;7.85;;;2.65;;
70075;SDS011;57446;51.056;3.712;2022-07-29T18:49:46;5.50;;;2.42;;
70075;SDS011;57446;51.056;3.712;2022-07-29T18:52:56;6.75;;;2.35;;
70075;SDS011;57446;51.056;3.712;2022-07-29T18:59:23;6.05;;;2.30;;
70075;SDS011;57446;51.056;3.712;2022-07-29T19:05:20;7.90;;;2.17;;
70075;SDS011;57446;51.056;3.712;2022-07-29T19:17:35;8.45;;;2.92;;
70075;SDS011;57446;51.056;3.712;2022-07-29T19:36:29;13.90;;;3.55;;
70075;SDS011;57446;51.056;3.712;2022-07-29T19:39:17;11.55;;;3.15;;
70075;SDS011;57446;51.056;3.712;2022-07-29T20:00:59;10.65;;;3.45;;
70075;SDS011;57446;51.056;3.712;2022-07-29T20:22:40;11.78;;;3.65;;
70075;SDS011;57446;51.056;3.712;2022-07-29T20:29:04;11.93;;;3.55;;
70075;SDS011;57446;51.056;3.712;2022-07-29T20:32:05;12.50;;;4.50;;
70075;SDS011;57446;51.056;3.712;2022-07-29T20:35:03;13.85;;;3.27;;
70075;SDS011;57446;51.056;3.712;2022-07-29T20:37:54;10.48;;;3.30;;
70075;SDS011;57446;51.056;3.712;2022-07-29T20:40:53;9.03;;;3.77;;
70075;SDS011;57446;51.056;3.712;2022-07-29T20:47:10;10.80;;;4.03;;
70075;SDS011;57446;51.056;3.712;2022-07-29T21:00:28;9.18;;;3.50;;
70075;SDS011;57446;51.056;3.712;2022-07-29T21:03:27;9.35;;;3.85;;
70075;SDS011;57446;51.056;3.712;2022-07-29T21:09:57;12.28;;;3.45;;
70075;SDS011;57446;51.056;3.712;2022-07-29T21:13:05;22.95;;;13.43;;
70075;SDS011;57446;51.056;3.712;2022-07-29T21:18:54;12.90;;;3.90;;
70075;SDS011;57446;51.056;3.712;2022-07-29T21:31:15;13.35;;;3.92;;
70075;SDS011;57446;51.056;3.712;2022-07-29T21:44:42;13.85;;;4.17;;
70075;SDS011;57446;51.056;3.712;2022-07-29T21:54:19;12.70;;;4.35;;
70075;SDS011;57446;51.056;3.712;2022-07-29T21:57:16;11.05;;;4.47;;
70075;SDS011;57446;51.056;3.712;2022-07-29T22:33:47;13.30;;;5.42;;
70075;SDS011;57446;51.056;3.712;2022-07-29T22:39:32;11.22;;;5.33;;
70075;SDS011;57446;51.056;3.712;2022-07-29T22:42:30;16.30;;;5.42;;
70075;SDS011;57446;51.056;3.712;2022-07-29T22:45:30;12.23;;;5.87;;
70075;SDS011;57446;51.056;3.712;2022-07-29T22:51:52;13.65;;;5.60;;
70075;SDS011;57446;51.056;3.712;2022-07-29T22:54:22;13.93;;;6.35;;
70075;SDS011;57446;51.056;3.712;2022-07-29T22:57:17;14.20;;;6.78;;
70075;SDS011;57446;51.056;3.712;2022-07-29T23:00:14;14.90;;;6.67;;
70075;SDS011;57446;51.056;3.712;2022-07-29T23:13:20;14.45;;;5.83;;
70075;SDS011;57446;51.056;3.712;2022-07-29T23:19:07;10.85;;;6.37;;
70075;SDS011;57446;51.056;3.712;2022-07-29T23:28:02;13.50;;;8.38;;
